Time;durP1;ratioP1;P1;durP2;ratioP2;P2;SDS_P1;SDS_P2;PMS_P1;PMS_P2;Temp;Humidity;BMP_temperature;BMP_pressure;BME280_temperature;BME280_humidity;BME280_pressure;Samples;Min_cycle;Max_cycle;Signal;HPM_P1;HPM_P2
2023/05/31 00:01:17;;;;;;;15.28;7.00;;;;;;;16.39;100.00;99722.81;1798101;79;21319;-80
2023/05/31 00:04:22;;;;;;;9.13;6.45;;;;;;;16.30;100.00;99720.88;1797523;80;21315;-80
2023/05/31 00:07:28;;;;;;;11.65;7.83;;;;;;;16.37;100.00;99724.41;1797413;80;21930;-80
2023/05/31 00:10:34;;;;;;;11.95;7.20;;;;;;;16.33;100.00;99729.56;1797447;80;21295;-80
2023/05/31 00:13:41;;;;;;;10.65;7.28;;;;;;;16.42;100.00;99723.72;1797468;80;21335;-80
2023/05/31 00:16:47;;;;;;;12.93;6.95;;;;;;;16.52;100.00;99727.66;1782442;79;21309;-80
2023/05/31 00:19:55;;;;;;;15.15;6.45;;;;;;;16.40;100.00;99719.81;1753564;80;21333;-80
2023/05/31 00:23:01;;;;;;;10.45;7.33;;;;;;;16.22;100.00;99715.65;1751496;82;21356;-80
2023/05/31 00:26:08;;;;;;;11.38;6.72;;;;;;;16.32;100.00;99722.33;1752685;82;21310;-80
2023/05/31 00:29:14;;;;;;;17.52;6.28;;;;;;;16.33;100.00;99722.66;1751576;82;21694;-80
2023/05/31 00:32:19;;;;;;;10.85;7.28;;;;;;;16.43;100.00;99717.99;1788537;79;21303;-80
2023/05/31 00:35:26;;;;;;;13.93;7.42;;;;;;;16.31;100.00;99722.56;1809736;79;21298;-80
2023/05/31 00:38:31;;;;;;;17.50;8.45;;;;;;;16.32;100.00;99723.70;1809230;79;21299;-80
2023/05/31 00:41:38;;;;;;;11.88;6.90;;;;;;;16.44;100.00;99722.43;1809835;79;21307;-80
2023/05/31 00:44:44;;;;;;;11.18;7.65;;;;;;;16.46;100.00;99724.41;1809753;79;21306;-81
2023/05/31 00:47:49;;;;;;;13.65;7.12;;;;;;;16.41;100.00;99729.78;1809929;79;21303;-81
2023/05/31 00:50:57;;;;;;;17.20;7.05;;;;;;;16.36;100.00;99727.70;1808387;79;21297;-81
2023/05/31 00:54:03;;;;;;;14.68;7.80;;;;;;;16.42;100.00;99738.39;1809739;79;21334;-81
2023/05/31 00:57:09;;;;;;;14.65;7.53;;;;;;;16.32;100.00;99735.28;1809977;79;21881;-81
2023/05/31 01:00:15;;;;;;;11.53;7.17;;;;;;;16.46;100.00;99744.27;1809719;79;21322;-81
2023/05/31 01:03:21;;;;;;;15.25;7.90;;;;;;;16.56;100.00;99742.70;1808422;79;21318;-80
2023/05/31 01:06:31;;;;;;;9.95;6.62;;;;;;;16.56;100.00;99747.34;1809650;79;21311;-80
2023/05/31 01:09:37;;;;;;;15.63;6.80;;;;;;;16.71;100.00;99742.86;1781377;79;21369;-80
2023/05/31 01:13:19;;;;;;;13.18;6.78;;;;;;;16.76;100.00;99748.56;1810515;79;21328;-80
2023/05/31 01:16:35;;;;;;;13.90;7.42;;;;;;;16.66;100.00;99738.56;1808234;78;21295;-80
2023/05/31 01:19:46;;;;;;;12.55;6.92;;;;;;;16.50;100.00;99736.69;1808752;79;21338;-80
2023/05/31 01:23:13;;;;;;;12.20;7.70;;;;;;;16.49;100.00;99737.77;1791704;78;21350;-80
2023/05/31 01:27:00;;;;;;;17.32;7.28;;;;;;;16.39;100.00;99738.00;1782680;80;21654;-80
2023/05/31 01:30:05;;;;;;;11.75;6.83;;;;;;;16.32;100.00;99738.05;1792880;80;21868;-80
2023/05/31 01:33:15;;;;;;;14.05;6.83;;;;;;;16.45;100.00;99736.53;1794168;80;21298;-79
2023/05/31 01:36:21;;;;;;;11.15;7.47;;;;;;;16.44;100.00;99741.75;1794390;80;21318;-80
2023/05/31 01:39:27;;;;;;;17.73;7.35;;;;;;;16.31;100.00;99738.58;1793664;80;21888;-80
2023/05/31 01:42:32;;;;;;;12.53;6.97;;;;;;;16.09;100.00;99742.82;1794158;80;21306;-80
2023/05/31 01:45:39;;;;;;;12.37;7.45;;;;;;;16.30;100.00;99742.96;1794146;80;21298;-79
2023/05/31 01:48:45;;;;;;;12.45;6.65;;;;;;;16.36;100.00;99741.50;1794143;80;22150;-79
2023/05/31 01:51:52;;;;;;;11.80;7.42;;;;;;;16.12;100.00;99745.67;1792558;80;21306;-80
2023/05/31 01:54:51;;;;;;;20.20;6.50;;;;;;;16.20;100.00;99748.16;1794157;80;22637;-81
2023/05/31 01:57:58;;;;;;;10.45;6.25;;;;;;;16.29;100.00;99749.02;1794206;80;21310;-80
2023/05/31 02:01:03;;;;;;;9.40;6.67;;;;;;;16.04;100.00;99757.83;1793523;80;21322;-80
2023/05/31 02:04:09;;;;;;;10.53;6.33;;;;;;;16.01;100.00;99759.14;1792853;80;21306;-81
2023/05/31 02:07:14;;;;;;;13.10;6.75;;;;;;;16.22;100.00;99748.22;1794275;80;21298;-81
2023/05/31 02:10:21;;;;;;;12.05;6.55;;;;;;;16.44;100.00;99755.55;1793309;80;21329;-81
2023/05/31 02:13:26;;;;;;;14.07;6.70;;;;;;;16.30;100.00;99756.76;1792555;80;21306;-81
2023/05/31 02:16:31;;;;;;;15.18;6.55;;;;;;;16.32;100.00;99752.69;1792842;80;21892;-80
2023/05/31 02:19:37;;;;;;;12.43;6.90;;;;;;;16.40;100.00;99762.59;1793794;80;21325;-80
2023/05/31 02:22:44;;;;;;;10.32;6.17;;;;;;;16.50;100.00;99758.77;1793622;78;21389;-81
2023/05/31 02:25:55;;;;;;;9.30;6.37;;;;;;;16.43;100.00;99760.77;1794170;80;21286;-81
2023/05/31 02:29:02;;;;;;;13.13;6.83;;;;;;;16.36;100.00;99759.98;1792579;80;21342;-81
2023/05/31 02:32:10;;;;;;;10.98;6.62;;;;;;;16.34;100.00;99771.26;1792732;80;21892;-80
2023/05/31 02:35:16;;;;;;;10.00;6.00;;;;;;;16.34;100.00;99763.52;1794314;80;21294;-81
2023/05/31 02:38:22;;;;;;;16.37;6.83;;;;;;;16.31;100.00;99763.96;1794292;80;21297;-81
2023/05/31 02:41:27;;;;;;;15.93;6.47;;;;;;;16.39;100.00;99765.59;1793200;80;21290;-81
2023/05/31 02:44:33;;;;;;;11.83;7.47;;;;;;;16.07;100.00;99772.02;1794196;80;21298;-81
2023/05/31 02:47:39;;;;;;;13.53;7.05;;;;;;;16.42;100.00;99767.88;1792707;80;21951;-80
2023/05/31 02:50:46;;;;;;;10.53;7.95;;;;;;;16.48;100.00;99772.52;1793554;80;21356;-80
2023/05/31 02:54:06;;;;;;;18.62;9.88;;;;;;;16.59;100.00;99772.59;1754755;80;21327;-80
2023/05/31 02:57:11;;;;;;;30.12;11.33;;;;;;;16.56;100.00;99773.57;1794228;80;21853;-80
2023/05/31 03:00:18;;;;;;;27.93;13.70;;;;;;;16.71;100.00;99784.27;1793763;80;21325;-80
2023/05/31 03:03:24;;;;;;;26.93;14.75;;;;;;;16.73;100.00;99787.67;1792745;80;22558;-79
2023/05/31 03:06:33;;;;;;;29.95;15.20;;;;;;;16.72;100.00;99794.27;1792599;80;21334;-80
2023/05/31 03:09:40;;;;;;;35.80;16.10;;;;;;;16.83;100.00;99792.12;1794090;80;21294;-79
2023/05/31 03:12:47;;;;;;;22.70;14.35;;;;;;;16.92;100.00;99801.79;1794237;80;21290;-80
2023/05/31 03:15:52;;;;;;;28.35;14.95;;;;;;;16.62;100.00;99803.05;1794045;80;21318;-80
2023/05/31 03:18:59;;;;;;;27.40;14.60;;;;;;;16.61;100.00;99797.23;1794033;80;21824;-81
2023/05/31 03:22:07;;;;;;;29.40;15.60;;;;;;;16.60;100.00;99798.28;1792659;80;21326;-81
2023/05/31 03:25:13;;;;;;;29.75;15.28;;;;;;;16.65;100.00;99803.95;1794044;80;21293;-81
2023/05/31 03:28:19;;;;;;;33.38;15.48;;;;;;;16.61;100.00;99806.35;1792483;80;21338;-81
2023/05/31 03:31:24;;;;;;;36.55;16.87;;;;;;;16.70;100.00;99815.70;1792481;80;21310;-81
2023/05/31 03:34:30;;;;;;;34.25;17.67;;;;;;;16.79;100.00;99820.72;1770694;79;21297;-80
2023/05/31 03:37:35;;;;;;;42.13;19.45;;;;;;;16.79;100.00;99815.20;1758078;81;21317;-80
2023/05/31 03:40:41;;;;;;;36.48;19.75;;;;;;;16.80;100.00;99822.44;1757775;81;21313;-81
2023/05/31 03:43:50;;;;;;;39.92;19.30;;;;;;;16.73;100.00;99816.13;1757868;81;21310;-80
2023/05/31 03:46:55;;;;;;;37.53;19.70;;;;;;;16.86;100.00;99819.30;1757705;81;21356;-81
2023/05/31 03:50:01;;;;;;;38.48;21.07;;;;;;;16.79;100.00;99828.17;1783325;80;21325;-79
2023/05/31 03:53:06;;;;;;;41.23;20.62;;;;;;;17.03;100.00;99824.53;1785597;80;21274;-81
2023/05/31 03:56:11;;;;;;;39.67;21.60;;;;;;;16.87;100.00;99825.11;1785603;80;21330;-81
2023/05/31 03:59:18;;;;;;;35.95;21.02;;;;;;;16.85;100.00;99831.42;1785561;80;21342;-80
2023/05/31 04:02:24;;;;;;;43.33;21.12;;;;;;;16.64;100.00;99826.28;1784631;80;21350;-80
2023/05/31 04:05:30;;;;;;;35.58;20.15;;;;;;;16.85;100.00;99831.42;1785518;80;21298;-80
2023/05/31 04:08:37;;;;;;;40.73;19.07;;;;;;;17.03;100.00;99836.09;1786061;80;21270;-80
2023/05/31 04:11:42;;;;;;;33.75;18.50;;;;;;;17.07;100.00;99835.39;1785427;80;21346;-80
2023/05/31 04:14:48;;;;;;;39.63;18.77;;;;;;;16.97;100.00;99839.23;1785819;80;21888;-79
2023/05/31 04:17:55;;;;;;;29.92;17.30;;;;;;;16.79;100.00;99836.45;1785194;80;21342;-80
2023/05/31 04:21:02;;;;;;;31.33;16.62;;;;;;;16.74;100.00;99834.91;1785672;80;21294;-80
2023/05/31 04:24:08;;;;;;;28.75;16.48;;;;;;;16.80;100.00;99841.77;1790722;78;21339;-80
2023/05/31 04:27:18;;;;;;;33.00;16.15;;;;;;;16.90;100.00;99841.24;1805792;79;21311;-81
2023/05/31 04:30:23;;;;;;;28.57;14.25;;;;;;;17.04;100.00;99836.42;1807221;79;21893;-81
2023/05/31 04:33:21;;;;;;;27.32;14.95;;;;;;;17.14;100.00;99836.72;1806332;79;21343;-80
2023/05/31 04:36:15;;;;;;;26.75;15.78;;;;;;;16.93;100.00;99839.38;1807323;79;21299;-80
2023/05/31 04:39:25;;;;;;;24.32;14.07;;;;;;;17.02;100.00;99838.01;1807001;79;21307;-80
2023/05/31 04:42:33;;;;;;;21.50;14.20;;;;;;;17.44;98.99;99842.28;1805476;79;21366;-81
2023/05/31 04:45:41;;;;;;;27.93;12.25;;;;;;;17.46;98.43;99842.92;1806636;79;21310;-81
2023/05/31 04:48:49;;;;;;;18.25;10.55;;;;;;;17.52;96.28;99838.38;1805970;79;21330;-80
2023/05/31 04:51:56;;;;;;;20.62;10.15;;;;;;;17.73;94.87;99843.41;1806334;79;21908;-80
2023/05/31 04:55:06;;;;;;;18.05;9.65;;;;;;;17.70;93.93;99852.16;1805539;79;21881;-80
2023/05/31 04:58:12;;;;;;;20.12;9.25;;;;;;;17.87;92.21;99839.91;1806712;79;21901;-79
2023/05/31 05:01:18;;;;;;;17.55;8.33;;;;;;;17.97;91.53;99848.48;1805999;79;21312;-80
2023/05/31 05:04:31;;;;;;;13.15;7.28;;;;;;;17.94;89.76;99846.20;1805700;79;21387;-80
2023/05/31 05:07:37;;;;;;;11.68;6.60;;;;;;;17.92;88.96;99846.13;1807168;79;21362;-80
2023/05/31 05:10:43;;;;;;;14.95;7.30;;;;;;;18.00;89.59;99856.87;1807005;79;21283;-80
2023/05/31 05:13:51;;;;;;;11.08;6.90;;;;;;;18.03;89.29;99855.86;1805633;79;21274;-79
2023/05/31 05:16:56;;;;;;;13.58;7.03;;;;;;;17.99;88.69;99858.80;1805270;79;21271;-79
2023/05/31 05:20:05;;;;;;;11.55;6.78;;;;;;;17.83;89.47;99865.84;1794579;79;21329;-79
2023/05/31 05:23:12;;;;;;;8.40;6.47;;;;;;;17.98;87.68;99863.19;1794362;78;21925;-80
2023/05/31 05:26:21;;;;;;;12.20;6.22;;;;;;;17.83;88.31;99860.82;1801342;78;21294;-79
2023/05/31 05:29:28;;;;;;;15.53;6.67;;;;;;;17.93;87.46;99861.13;1805034;79;21846;-80
2023/05/31 05:32:34;;;;;;;10.58;5.90;;;;;;;17.85;87.15;99860.06;1801282;78;21328;-80
2023/05/31 05:35:40;;;;;;;11.33;6.37;;;;;;;17.89;87.31;99865.44;1806912;78;21342;-80
2023/05/31 05:38:40;;;;;;;14.40;6.20;;;;;;;17.97;87.41;99866.47;1804263;78;21323;-80
2023/05/31 05:41:46;;;;;;;15.32;6.87;;;;;;;18.02;85.55;99871.30;1807695;79;21299;-79
2023/05/31 05:44:52;;;;;;;6.20;5.12;;;;;;;18.14;84.52;99872.19;1800427;78;21303;-80
2023/05/31 05:47:59;;;;;;;10.70;5.40;;;;;;;18.21;84.44;99874.84;1796495;78;21841;-80
2023/05/31 05:51:04;;;;;;;10.65;6.10;;;;;;;18.39;83.46;99875.61;1784605;78;21953;-80
2023/05/31 05:54:09;;;;;;;11.00;5.45;;;;;;;18.45;82.65;99870.22;1796910;78;21288;-81
2023/05/31 05:57:15;;;;;;;12.45;6.08;;;;;;;18.64;82.90;99875.97;1784857;79;21286;-81
2023/05/31 06:00:24;;;;;;;11.38;5.92;;;;;;;18.79;80.36;99887.44;1795068;78;21968;-81
2023/05/31 06:03:30;;;;;;;9.53;5.78;;;;;;;18.91;80.13;99892.97;1805615;78;21286;-81
2023/05/31 06:06:36;;;;;;;11.18;5.65;;;;;;;19.11;77.87;99880.15;1759807;81;21906;-81
2023/05/31 06:09:44;;;;;;;10.13;4.80;;;;;;;18.99;78.93;99889.84;1750742;80;22565;-81
2023/05/31 06:12:43;;;;;;;17.80;5.25;;;;;;;19.18;76.77;99897.48;1759176;80;21326;-80
2023/05/31 06:15:37;;;;;;;16.85;5.45;;;;;;;19.32;75.55;99900.29;1800845;78;21914;-80
2023/05/31 06:18:42;;;;;;;10.23;5.22;;;;;;;19.05;77.15;99896.34;1804224;78;21318;-80
2023/05/31 06:21:49;;;;;;;7.20;4.45;;;;;;;19.32;75.69;99905.00;1802622;78;21321;-79
2023/05/31 06:24:57;;;;;;;9.35;4.60;;;;;;;19.39;74.11;99898.80;1760853;81;21287;-80
2023/05/31 06:28:02;;;;;;;8.78;4.80;;;;;;;19.45;73.85;99899.73;1750141;79;21350;-80
2023/05/31 06:31:09;;;;;;;11.33;5.22;;;;;;;19.51;74.01;99894.05;1762651;80;21318;-80
2023/05/31 06:34:15;;;;;;;9.85;4.65;;;;;;;19.79;74.66;99889.66;1771728;80;21290;-81
2023/05/31 06:37:25;;;;;;;12.45;5.20;;;;;;;20.23;71.70;99902.42;1771447;80;21873;-80
2023/05/31 06:40:29;;;;;;;9.38;5.12;;;;;;;20.39;70.39;99891.91;1768460;80;21187;-81
2023/05/31 06:43:36;;;;;;;8.20;4.53;;;;;;;20.37;71.74;99888.00;1767221;80;21353;-80
2023/05/31 06:46:48;;;;;;;6.75;4.20;;;;;;;20.62;70.38;99890.39;1774221;80;21290;-80
2023/05/31 06:50:07;;;;;;;6.03;4.00;;;;;;;20.68;71.94;99875.48;1770830;80;21291;-81
2023/05/31 06:53:12;;;;;;;9.48;3.67;;;;;;;21.02;68.62;99887.95;1771633;80;21327;-79
2023/05/31 06:56:29;;;;;;;8.45;3.83;;;;;;;21.09;68.35;99896.97;1774241;80;21318;-79
2023/05/31 06:59:35;;;;;;;5.47;3.50;;;;;;;20.87;68.10;99907.18;1753783;80;21303;-80
2023/05/31 07:02:40;;;;;;;7.80;4.72;;;;;;;20.93;68.03;99897.27;1775242;80;21275;-80
2023/05/31 07:05:46;;;;;;;8.30;4.45;;;;;;;20.84;67.92;99903.51;1775902;80;21314;-80
2023/05/31 07:08:47;;;;;;;19.05;4.50;;;;;;;21.03;66.58;99900.78;1777564;80;21351;-80
2023/05/31 07:11:53;;;;;;;9.15;4.60;;;;;;;20.93;67.12;99899.20;1778239;80;21327;-80
2023/05/31 07:14:41;;;;;;;6.58;4.47;;;;;;;21.00;68.33;99902.66;1780314;80;21881;-80
2023/05/31 07:17:34;;;;;;;9.83;4.90;;;;;;;20.99;67.20;99900.98;1769115;80;21318;-80
2023/05/31 07:20:20;;;;;;;8.58;4.62;;;;;;;21.03;67.19;99910.52;1761273;80;21334;-80
2023/05/31 07:23:26;;;;;;;8.40;5.00;;;;;;;20.88;69.83;99907.47;1757168;80;21358;-80
2023/05/31 07:26:32;;;;;;;8.13;4.85;;;;;;;20.90;70.76;99914.47;1783063;80;21295;-80
2023/05/31 07:29:37;;;;;;;11.70;5.55;;;;;;;20.96;70.64;99909.83;1774590;80;21299;-80
2023/05/31 07:32:43;;;;;;;7.72;4.28;;;;;;;21.11;70.43;99914.22;1779921;80;21287;-80
2023/05/31 07:35:51;;;;;;;12.45;5.40;;;;;;;21.29;70.29;99913.10;1775615;80;21346;-80
2023/05/31 07:38:56;;;;;;;6.80;4.33;;;;;;;21.62;67.93;99926.11;1778241;80;21278;-80
2023/05/31 07:41:55;;;;;;;10.20;4.30;;;;;;;21.63;67.25;99920.83;1774618;80;21319;-81
2023/05/31 07:45:03;;;;;;;5.20;3.98;;;;;;;21.62;68.50;99916.36;1769469;80;21833;-79
2023/05/31 07:48:09;;;;;;;10.15;4.20;;;;;;;21.57;68.52;99920.48;1772230;80;21345;-79
2023/05/31 07:51:15;;;;;;;7.62;4.33;;;;;;;21.44;66.92;99931.42;1776375;79;21307;-80
2023/05/31 07:54:21;;;;;;;8.90;4.50;;;;;;;21.40;67.64;99921.91;1779081;80;21334;-81
2023/05/31 07:57:26;;;;;;;12.18;4.75;;;;;;;21.62;68.28;99921.09;1772800;80;21260;-81
2023/05/31 08:00:32;;;;;;;7.58;4.05;;;;;;;21.63;68.26;99918.59;1774879;80;21381;-80
2023/05/31 08:03:38;;;;;;;7.05;3.67;;;;;;;21.71;67.60;99928.45;1773614;80;21327;-81
2023/05/31 08:06:43;;;;;;;6.75;3.52;;;;;;;21.93;64.70;99922.33;1767440;80;21341;-81
2023/05/31 08:09:49;;;;;;;7.17;3.67;;;;;;;22.11;61.90;99928.98;1769831;79;21259;-80
2023/05/31 08:12:55;;;;;;;6.42;3.47;;;;;;;22.23;58.17;99935.77;1773312;80;21295;-82
2023/05/31 08:16:01;;;;;;;7.72;3.90;;;;;;;22.08;60.23;99928.06;1775405;80;21338;-81
2023/05/31 08:19:06;;;;;;;7.30;3.83;;;;;;;21.95;61.00;99931.25;1782474;79;21290;-81
2023/05/31 08:22:14;;;;;;;7.67;3.67;;;;;;;21.95;63.51;99929.86;1777108;80;21286;-81
2023/05/31 08:25:22;;;;;;;12.33;4.03;;;;;;;21.83;59.67;99924.96;1762161;80;21911;-81
2023/05/31 08:28:30;;;;;;;6.47;3.58;;;;;;;21.94;61.11;99926.78;1772940;79;21640;-81
2023/05/31 08:31:34;;;;;;;9.55;4.00;;;;;;;22.17;63.38;99947.97;1799124;78;21342;-81
2023/05/31 08:34:44;;;;;;;6.75;2.98;;;;;;;22.28;59.29;99934.98;1799134;78;21869;-81
2023/05/31 08:37:51;;;;;;;6.67;3.08;;;;;;;22.36;58.58;99927.00;1802455;79;22197;-81
2023/05/31 08:40:58;;;;;;;4.95;3.27;;;;;;;22.24;57.52;99925.47;1794239;78;21311;-81
2023/05/31 08:44:05;;;;;;;5.37;2.85;;;;;;;22.25;56.34;99929.38;1789765;78;21366;-80
2023/05/31 08:47:34;;;;;;;5.62;2.55;;;;;;;22.02;55.41;99922.68;1794635;78;21329;-80
2023/05/31 08:50:42;;;;;;;6.30;3.22;;;;;;;21.86;57.11;99923.06;1794898;78;21310;-81
2023/05/31 08:53:50;;;;;;;14.03;3.20;;;;;;;21.81;55.86;99942.48;1802036;78;21233;-81
2023/05/31 08:56:55;;;;;;;5.28;3.00;;;;;;;21.87;56.08;99928.36;1808200;78;21294;-81
2023/05/31 08:59:59;;;;;;;10.85;3.10;;;;;;;21.86;58.70;99939.77;1785754;78;21345;-81
2023/05/31 09:03:05;;;;;;;9.20;2.72;;;;;;;21.65;59.57;99928.38;1801664;79;21274;-81
2023/05/31 09:06:11;;;;;;;6.75;2.87;;;;;;;21.54;58.71;99927.94;1757472;80;21332;-80
2023/05/31 09:09:18;;;;;;;3.60;2.62;;;;;;;21.77;59.67;99924.62;1728338;82;21410;-80
2023/05/31 09:12:24;;;;;;;4.35;2.47;;;;;;;22.01;58.86;99918.22;1761812;81;21355;-81
2023/05/31 09:15:33;;;;;;;6.47;2.95;;;;;;;22.13;58.00;99921.19;1742383;80;22032;-81
2023/05/31 09:18:45;;;;;;;5.70;2.40;;;;;;;22.31;54.66;99924.17;1754261;81;21331;-81
2023/05/31 09:21:52;;;;;;;6.90;2.67;;;;;;;22.06;54.66;99926.08;1753251;79;21288;-80
2023/05/31 09:25:06;;;;;;;4.55;3.02;;;;;;;22.07;54.71;99918.03;1756714;81;21994;-81
2023/05/31 09:28:12;;;;;;;4.90;2.87;;;;;;;22.23;55.65;99924.63;1746806;80;21307;-81
2023/05/31 09:31:18;;;;;;;4.85;2.83;;;;;;;22.01;57.91;99915.44;1745426;81;21373;-81
2023/05/31 09:34:34;;;;;;;5.65;2.10;;;;;;;22.06;56.37;99915.48;1730377;81;21331;-81
2023/05/31 09:37:40;;;;;;;7.00;2.80;;;;;;;22.35;52.89;99921.70;1756950;81;21205;-80
2023/05/31 09:40:47;;;;;;;6.75;2.90;;;;;;;22.15;51.46;99921.75;1755689;81;21153;-80
2023/05/31 09:43:48;;;;;;;4.62;2.22;;;;;;;22.11;50.55;99920.62;1750475;80;21272;-81
2023/05/31 09:46:54;;;;;;;5.45;2.52;;;;;;;22.06;52.42;99913.55;1754922;80;21283;-80
2023/05/31 09:50:03;;;;;;;5.70;2.35;;;;;;;22.13;52.53;99921.19;1758789;80;21290;-81
2023/05/31 09:53:10;;;;;;;6.30;2.60;;;;;;;22.19;52.67;99922.08;1717343;82;21323;-80
2023/05/31 09:56:17;;;;;;;4.12;2.50;;;;;;;22.28;52.92;99911.31;1795886;78;22930;-80
2023/05/31 09:59:24;;;;;;;4.50;2.35;;;;;;;22.37;52.07;99919.48;1798456;78;21267;-81
2023/05/31 10:02:29;;;;;;;6.78;2.50;;;;;;;22.33;53.48;99914.98;1800226;78;21940;-80
2023/05/31 10:05:35;;;;;;;3.87;2.62;;;;;;;22.40;53.00;99908.66;1781597;78;21292;-81
2023/05/31 10:08:41;;;;;;;8.13;2.60;;;;;;;22.70;55.84;99917.84;1758845;81;22048;-81
2023/05/31 10:11:49;;;;;;;7.28;2.58;;;;;;;22.69;53.80;99921.73;1734017;81;21860;-81
2023/05/31 10:14:59;;;;;;;5.17;3.02;;;;;;;22.78;55.65;99912.89;1761462;81;21284;-80
2023/05/31 10:18:12;;;;;;;;;;;;;;;22.94;54.68;99914.72;1716405;82;21320;-81
2023/05/31 10:21:28;;;;;;;4.28;2.42;;;;;;;22.48;55.26;99912.89;1733079;80;20712;-80
2023/05/31 10:24:37;;;;;;;2.90;2.25;;;;;;;22.64;55.41;99909.16;1732801;80;21888;-80
2023/05/31 10:27:48;;;;;;;5.60;2.40;;;;;;;22.94;54.45;99899.38;1727780;80;21862;-81
2023/05/31 10:30:54;;;;;;;6.65;2.22;;;;;;;22.95;50.89;99908.02;1739818;80;21311;-81
2023/05/31 10:37:03;;;;;;;5.92;2.50;;;;;;;23.43;50.67;99900.51;1732406;80;21353;-81
2023/05/31 10:40:21;;;;;;;7.28;2.45;;;;;;;23.44;50.15;99916.17;1737375;80;21897;-81
2023/05/31 10:43:38;;;;;;;5.50;2.65;;;;;;;23.47;50.25;99901.65;1715961;83;21222;-80
2023/05/31 10:46:46;;;;;;;4.97;2.30;;;;;;;23.68;49.02;99899.28;1730042;80;21910;-80
2023/05/31 10:49:52;;;;;;;7.08;2.58;;;;;;;23.96;48.32;99900.78;1735106;80;21285;-81
2023/05/31 10:53:01;;;;;;;4.40;2.37;;;;;;;23.94;48.70;99899.37;1735272;80;21890;-80
2023/05/31 10:56:19;;;;;;;5.15;2.45;;;;;;;23.79;48.97;99900.16;1724398;81;21335;-80
2023/05/31 10:59:25;;;;;;;8.58;2.95;;;;;;;23.91;49.14;99909.16;1735738;80;21818;-80
2023/05/31 11:02:31;;;;;;;7.58;2.70;;;;;;;23.89;47.20;99900.75;1733802;80;21286;-81
2023/05/31 11:05:36;;;;;;;5.25;2.92;;;;;;;23.95;48.57;99910.84;1776050;79;21273;-81
2023/05/31 11:08:37;;;;;;;6.00;2.50;;;;;;;24.12;48.31;99893.28;1728889;81;21310;-81
2023/05/31 11:11:53;;;;;;;4.42;2.52;;;;;;;24.32;48.12;99897.22;1722179;82;21320;-80
2023/05/31 11:15:07;;;;;;;6.35;2.47;;;;;;;24.45;46.27;99895.32;1732511;82;21926;-81
2023/05/31 11:18:22;;;;;;;6.58;2.75;;;;;;;24.36;47.12;99892.23;1756948;81;21336;-80
2023/05/31 11:21:59;;;;;;;10.50;3.15;;;;;;;24.20;48.42;99884.92;1733750;81;21891;-79
2023/05/31 11:25:05;;;;;;;6.05;2.27;;;;;;;24.34;48.84;99881.03;1754045;80;21311;-79
2023/05/31 11:28:15;;;;;;;3.77;2.10;;;;;;;24.65;47.47;99888.33;1751761;81;21318;-80
2023/05/31 11:31:25;;;;;;;6.55;2.45;;;;;;;24.54;45.98;99878.28;1757207;79;21969;-80
2023/05/31 11:34:35;;;;;;;5.62;2.85;;;;;;;23.92;47.31;99889.04;1744012;81;21330;-81
2023/05/31 11:37:42;;;;;;;8.60;2.70;;;;;;;23.99;46.94;99877.03;1754389;81;21991;-80
2023/05/31 11:40:48;;;;;;;6.83;2.70;;;;;;;24.03;44.91;99889.34;1762711;80;21292;-82
2023/05/31 11:43:53;;;;;;;3.92;2.30;;;;;;;23.93;45.32;99872.56;1753728;81;21330;-80
2023/05/31 11:47:00;;;;;;;9.15;2.60;;;;;;;24.06;45.90;99889.36;1748931;81;21295;-81
2023/05/31 11:50:06;;;;;;;7.35;2.62;;;;;;;24.18;44.20;99882.94;1756222;81;21328;-80
2023/05/31 11:53:12;;;;;;;4.65;2.30;;;;;;;24.37;45.08;99883.28;1757231;81;21905;-81
2023/05/31 11:56:21;;;;;;;5.53;2.70;;;;;;;24.00;46.37;99884.33;1742197;81;21267;-82
2023/05/31 11:59:31;;;;;;;5.45;2.12;;;;;;;24.38;45.97;99884.42;1738618;81;21314;-80
2023/05/31 12:02:37;;;;;;;3.33;1.98;;;;;;;24.64;45.42;99890.02;1731678;82;21641;-80
2023/05/31 12:05:44;;;;;;;7.10;2.35;;;;;;;24.73;44.47;99881.35;1765980;79;22002;-81
2023/05/31 12:08:50;;;;;;;9.08;2.60;;;;;;;24.95;41.20;99881.06;1758183;81;21339;-80
2023/05/31 12:11:56;;;;;;;5.65;2.42;;;;;;;24.90;43.14;99875.48;1801973;78;21286;-80
2023/05/31 12:15:04;;;;;;;6.60;2.15;;;;;;;24.12;45.13;99877.08;1738489;81;21299;-80
2023/05/31 12:18:10;;;;;;;5.40;2.33;;;;;;;23.98;44.75;99879.55;1713918;82;21322;-80
2023/05/31 12:21:18;;;;;;;8.25;2.12;;;;;;;23.98;44.27;99879.55;1764272;81;21306;-80
2023/05/31 12:24:26;;;;;;;7.70;2.30;;;;;;;24.46;42.51;99880.22;1755964;80;21304;-80
2023/05/31 12:27:35;;;;;;;4.08;2.42;;;;;;;23.89;44.64;99895.16;1750027;81;21326;-80
2023/05/31 12:30:56;;;;;;;2.95;2.12;;;;;;;23.81;44.79;99877.56;1759797;81;21290;-80
2023/05/31 12:34:23;;;;;;;4.33;2.40;;;;;;;23.78;44.85;99879.50;1784556;78;21386;-80
2023/05/31 12:37:30;;;;;;;5.80;2.00;;;;;;;23.74;46.08;99871.38;1772805;81;21331;-80
2023/05/31 12:40:35;;;;;;;7.92;2.65;;;;;;;23.93;44.63;99878.14;1772818;81;21311;-80
2023/05/31 12:43:41;;;;;;;6.67;2.27;;;;;;;24.02;45.35;99883.48;1741814;82;21332;-80
2023/05/31 12:46:48;;;;;;;9.35;2.17;;;;;;;23.92;44.23;99874.52;1768625;79;21295;-80
2023/05/31 12:49:55;;;;;;;4.40;2.12;;;;;;;24.81;43.22;99874.37;1772551;80;21250;-80
2023/05/31 12:53:03;;;;;;;4.33;2.15;;;;;;;24.20;43.62;99880.17;1741456;81;21901;-80
2023/05/31 12:56:08;;;;;;;9.10;2.20;;;;;;;24.22;43.87;99876.52;1756139;81;21913;-81
2023/05/31 12:59:15;;;;;;;3.47;1.90;;;;;;;24.35;42.20;99889.69;1766976;81;21310;-80
2023/05/31 13:02:21;;;;;;;6.03;2.40;;;;;;;24.47;41.56;99882.76;1772135;81;21290;-80
2023/05/31 13:05:27;;;;;;;6.47;2.10;;;;;;;24.47;41.85;99872.14;1771349;81;21307;-80
2023/05/31 13:08:33;;;;;;;5.03;2.50;;;;;;;24.41;41.33;99885.25;1773640;81;21921;-80
2023/05/31 13:11:41;;;;;;;2.67;2.00;;;;;;;24.55;42.58;99878.55;1772578;81;21778;-80
2023/05/31 13:14:47;;;;;;;5.17;2.60;;;;;;;24.62;40.81;99876.33;1774472;81;21307;-81
2023/05/31 13:17:52;;;;;;;3.33;1.98;;;;;;;24.52;41.58;99869.34;1773808;81;21276;-81
2023/05/31 13:20:58;;;;;;;3.85;1.90;;;;;;;24.98;39.06;99873.48;1773563;81;21366;-80
2023/05/31 13:24:03;;;;;;;4.78;2.10;;;;;;;24.47;41.02;99883.32;1773977;81;21280;-80
2023/05/31 13:27:03;;;;;;;8.13;1.95;;;;;;;24.33;41.84;99882.99;1774012;81;21263;-81
2023/05/31 13:30:08;;;;;;;5.33;2.27;;;;;;;24.48;41.55;99879.40;1773930;81;21299;-80
2023/05/31 13:33:15;;;;;;;4.40;2.40;;;;;;;24.46;41.39;99887.20;1774462;81;21264;-81
2023/05/31 13:36:26;;;;;;;3.50;2.10;;;;;;;25.21;40.91;99875.71;1810199;79;21257;-80
2023/05/31 13:39:31;;;;;;;4.33;2.25;;;;;;;24.49;41.94;99879.67;1809932;79;22803;-80
2023/05/31 13:42:37;;;;;;;4.45;2.60;;;;;;;24.64;41.82;99882.47;1810023;79;21305;-80
2023/05/31 13:45:42;;;;;;;5.40;2.37;;;;;;;24.42;42.34;99877.73;1809906;79;21293;-80
2023/05/31 13:48:49;;;;;;;8.90;2.47;;;;;;;24.29;43.44;99880.47;1809797;79;21296;-80
2023/05/31 13:51:55;;;;;;;6.85;2.17;;;;;;;24.67;42.63;99881.09;1808449;79;21301;-81
2023/05/31 13:55:00;;;;;;;5.30;2.47;;;;;;;24.80;41.97;99875.49;1809878;79;21324;-81
2023/05/31 13:58:06;;;;;;;3.90;2.10;;;;;;;24.63;41.47;99866.81;1809945;79;21293;-80
2023/05/31 14:01:14;;;;;;;4.65;2.30;;;;;;;24.39;41.73;99869.89;1803256;79;21313;-81
2023/05/31 14:04:21;;;;;;;7.25;2.33;;;;;;;24.69;42.26;99869.05;1774227;81;21291;-80
2023/05/31 14:07:26;;;;;;;8.00;2.50;;;;;;;24.68;43.00;99874.36;1775810;81;21320;-81
2023/05/31 14:10:32;;;;;;;6.70;2.33;;;;;;;24.67;42.46;99872.70;1776114;81;21296;-81
2023/05/31 14:13:39;;;;;;;3.25;1.87;;;;;;;24.81;42.12;99863.18;1776551;81;21288;-81
2023/05/31 14:16:46;;;;;;;4.22;2.30;;;;;;;24.32;43.20;99866.48;1776582;81;21295;-81
2023/05/31 14:19:52;;;;;;;10.03;2.35;;;;;;;24.55;41.19;99870.16;1776457;81;21343;-80
2023/05/31 14:22:59;;;;;;;3.98;2.52;;;;;;;24.37;41.45;99866.52;1776603;81;21299;-81
2023/05/31 14:26:05;;;;;;;10.70;2.47;;;;;;;24.22;41.77;99867.31;1776615;81;21287;-80
2023/05/31 14:29:11;;;;;;;5.08;2.58;;;;;;;24.45;41.51;99868.20;1776481;81;21291;-81
2023/05/31 14:32:16;;;;;;;10.72;2.77;;;;;;;24.61;41.82;99865.44;1776540;81;21295;-80
2023/05/31 14:39:55;;;;;;;5.45;2.20;;;;;;;24.51;41.53;99871.84;1789515;80;21138;-81